Time;durP1;ratioP1;P1;durP2;ratioP2;P2;SDS_P1;SDS_P2;PMS_P1;PMS_P2;Temp;Humidity;BMP_temperature;BMP_pressure;BME280_temperature;BME280_humidity;BME280_pressure;Samples;Min_cycle;Max_cycle;Signal;HPM_P1;HPM_P2
2023/06/15 00:01:05;;;;;;;;;;;;;;;;;;5091769;28;19968;-62
2023/06/15 00:03:31;;;;;;;;;;;;;;;;;;5092055;28;19975;-62
2023/06/15 00:05:57;;;;;;;;;;;;;;;;;;5092147;28;19928;-62
2023/06/15 00:08:23;;;;;;;;;;;;;;;;;;5091591;28;19947;-62
2023/06/15 00:10:49;;;;;;;;;;;;;;;;;;5091939;28;19920;-62
2023/06/15 00:13:15;;;;;;;;;;;;;;;;;;5091715;28;20039;-62
2023/06/15 00:15:41;;;;;;;;;;;;;;;;;;5091190;28;19981;-62
2023/06/15 00:18:07;;;;;;;;;;;;;;;;;;5092018;28;19959;-62
2023/06/15 00:20:33;;;;;;;;;;;;;;;;;;5091915;28;20003;-62
2023/06/15 00:22:58;;;;;;;;;;;;;;;;;;5091363;28;19947;-62
2023/06/15 00:25:24;;;;;;;;;;;;;;;;;;5088671;28;19928;-62
2023/06/15 00:27:50;;;;;;;;;;;;;;;;;;5071470;28;19955;-62
2023/06/15 00:30:16;;;;;;;;;;;;;;;;;;5081105;28;20396;-62
2023/06/15 00:32:42;;;;;;;;;;;;;;;;;;5090654;28;19920;-62
2023/06/15 00:35:08;;;;;;;;;;;;;;;;;;5091655;28;19920;-62
2023/06/15 00:37:34;;;;;;;;;;;;;;;;;;5091198;28;19924;-62
2023/06/15 00:40:00;;;;;;;;;;;;;;;;;;5090067;28;19924;-62
2023/06/15 00:42:26;;;;;;;;;;;;;;;;;;5073078;28;19924;-62
2023/06/15 00:44:52;;;;;;;;;;;;;;;;;;5091208;28;20270;-62
2023/06/15 00:47:18;;;;;;;;;;;;;;;;;;5090827;28;19992;-62
2023/06/15 00:49:44;;;;;;;;;;;;;;;;;;5091236;28;19927;-62
2023/06/15 00:52:10;;;;;;;;;;;;;;;;;;5091330;28;19924;-62
2023/06/15 00:54:38;;;;;;;;;;;;;;;;;;5090665;28;20483;-62
2023/06/15 00:57:04;;;;;;;;;;;;;;;;;;5090988;28;19924;-62
2023/06/15 00:59:30;;;;;;;;;;;;;;;;;;5091174;28;20306;-62
2023/06/15 01:01:56;;;;;;;;;;;;;;;;;;5090737;28;19937;-62
2023/06/15 01:04:26;;;;;;;;;;;;;;;;;;5090842;28;20441;-62
2023/06/15 01:06:52;;;;;;;;;;;;;;;;;;5090664;28;19920;-62
2023/06/15 01:09:18;;;;;;;;;;;;;;;;;;5090297;28;19924;-62
2023/06/15 01:11:46;;;;;;;;;;;;;;;;;;5072888;28;19924;-62
2023/06/15 01:14:12;;;;;;;;;;;;;;;;;;5090976;28;19920;-62
2023/06/15 01:16:38;;;;;;;;;;;;;;;;;;5090586;28;19931;-62
2023/06/15 01:19:09;;;;;;;;;;;;;;;;;;5090967;28;20429;-62
2023/06/15 01:21:35;;;;;;;;;;;;;;;;;;5090925;28;19929;-62
2023/06/15 01:24:02;;;;;;;;;;;;;;;;;;5090088;28;19920;-62
2023/06/15 01:26:28;;;;;;;;;;;;;;;;;;5078897;28;19931;-62
2023/06/15 01:28:54;;;;;;;;;;;;;;;;;;5052355;28;19928;-62
2023/06/15 01:31:20;;;;;;;;;;;;;;;;;;5089219;28;19939;-62
2023/06/15 01:33:46;;;;;;;;;;;;;;;;;;5090619;28;19920;-62
2023/06/15 01:36:12;;;;;;;;;;;;;;;;;;5090664;28;19997;-62
2023/06/15 01:38:38;;;;;;;;;;;;;;;;;;5090122;28;19920;-62
2023/06/15 01:41:04;;;;;;;;;;;;;;;;;;5090564;28;20094;-62
2023/06/15 01:43:30;;;;;;;;;;;;;;;;;;5090519;28;19927;-62
2023/06/15 01:45:56;;;;;;;;;;;;;;;;;;5093880;28;19935;-62
2023/06/15 01:48:22;;;;;;;;;;;;;;;;;;5094821;28;19924;-62
2023/06/15 01:50:48;;;;;;;;;;;;;;;;;;5094647;28;19920;-62
2023/06/15 01:53:14;;;;;;;;;;;;;;;;;;5094231;28;19920;-62
2023/06/15 01:55:40;;;;;;;;;;;;;;;;;;5094409;28;19931;-62
2023/06/15 01:58:06;;;;;;;;;;;;;;;;;;5094651;28;19926;-62
2023/06/15 02:00:32;;;;;;;;;;;;;;;;;;5094101;28;19954;-62
2023/06/15 02:02:58;;;;;;;;;;;;;;;;;;5094433;28;19930;-62
2023/06/15 02:05:24;;;;;;;;;;;;;;;;;;5094252;28;19943;-62
2023/06/15 02:07:50;;;;;;;;;;;;;;;;;;5093831;28;20405;-62
2023/06/15 02:10:18;;;;;;;;;;;;;;;;;;5094378;28;19924;-62
2023/06/15 02:12:44;;;;;;;;;;;;;;;;;;5094333;28;19970;-62
2023/06/15 02:15:10;;;;;;;;;;;;;;;;;;5093808;28;20493;-62
2023/06/15 02:17:38;;;;;;;;;;;;;;;;;;5094365;28;20015;-62
2023/06/15 02:20:05;;;;;;;;;;;;;;;;;;5075645;28;19969;-62
2023/06/15 02:22:31;;;;;;;;;;;;;;;;;;5093616;28;19947;-62
2023/06/15 02:24:57;;;;;;;;;;;;;;;;;;5093869;28;20410;-62
2023/06/15 02:27:23;;;;;;;;;;;;;;;;;;5074986;28;19986;-62
2023/06/15 02:29:48;;;;;;;;;;;;;;;;;;5079568;28;19958;-62
2023/06/15 02:32:14;;;;;;;;;;;;;;;;;;5094110;28;19930;-62
2023/06/15 02:34:40;;;;;;;;;;;;;;;;;;5093791;28;19924;-62
2023/06/15 02:37:08;;;;;;;;;;;;;;;;;;5093260;28;20037;-62
2023/06/15 02:39:34;;;;;;;;;;;;;;;;;;5093543;28;19926;-62
2023/06/15 02:42:00;;;;;;;;;;;;;;;;;;5093760;28;19926;-62
2023/06/15 02:44:26;;;;;;;;;;;;;;;;;;5093172;28;19920;-62
2023/06/15 02:46:52;;;;;;;;;;;;;;;;;;5075443;28;19935;-62
2023/06/15 02:49:18;;;;;;;;;;;;;;;;;;5093656;28;19924;-62
2023/06/15 02:51:44;;;;;;;;;;;;;;;;;;5092817;28;19935;-62
2023/06/15 02:54:12;;;;;;;;;;;;;;;;;;5093339;28;20713;-62
2023/06/15 02:56:41;;;;;;;;;;;;;;;;;;5092655;28;19923;-62
2023/06/15 02:59:08;;;;;;;;;;;;;;;;;;5093072;28;20374;-62
2023/06/15 03:01:38;;;;;;;;;;;;;;;;;;5093285;28;19924;-62
2023/06/15 03:04:04;;;;;;;;;;;;;;;;;;5093206;28;19924;-62
2023/06/15 03:06:33;;;;;;;;;;;;;;;;;;5074398;28;20761;-62
2023/06/15 03:08:59;;;;;;;;;;;;;;;;;;5092890;28;19924;-62
2023/06/15 03:11:26;;;;;;;;;;;;;;;;;;5092879;28;19924;-62
2023/06/15 03:13:53;;;;;;;;;;;;;;;;;;5092434;28;20005;-62
2023/06/15 03:16:20;;;;;;;;;;;;;;;;;;5093319;28;19920;-62
2023/06/15 03:18:47;;;;;;;;;;;;;;;;;;5093296;28;20384;-62
2023/06/15 03:21:14;;;;;;;;;;;;;;;;;;5092680;28;19920;-62
2023/06/15 03:23:42;;;;;;;;;;;;;;;;;;5093135;28;19950;-62
2023/06/15 03:26:08;;;;;;;;;;;;;;;;;;5083844;28;19928;-62
2023/06/15 03:28:37;;;;;;;;;;;;;;;;;;5072281;28;20332;-62
2023/06/15 03:31:04;;;;;;;;;;;;;;;;;;5089140;28;20329;-62
2023/06/15 03:33:30;;;;;;;;;;;;;;;;;;5092583;28;20069;-62
2023/06/15 03:35:57;;;;;;;;;;;;;;;;;;5073872;28;20051;-62
2023/06/15 03:38:23;;;;;;;;;;;;;;;;;;5092670;28;20255;-62
2023/06/15 03:40:49;;;;;;;;;;;;;;;;;;5092758;28;19924;-62
2023/06/15 03:43:15;;;;;;;;;;;;;;;;;;5092045;28;19935;-62
2023/06/15 03:45:41;;;;;;;;;;;;;;;;;;5092536;28;19943;-62
2023/06/15 03:48:07;;;;;;;;;;;;;;;;;;5092449;28;19969;-62
2023/06/15 03:50:33;;;;;;;;;;;;;;;;;;5091909;28;20397;-62
2023/06/15 03:52:59;;;;;;;;;;;;;;;;;;5091986;28;19920;-62
2023/06/15 03:55:26;;;;;;;;;;;;;;;;;;5092375;28;20416;-62
2023/06/15 03:57:52;;;;;;;;;;;;;;;;;;5091841;28;19967;-62
2023/06/15 04:00:18;;;;;;;;;;;;;;;;;;5092191;28;19997;-62
2023/06/15 04:02:44;;;;;;;;;;;;;;;;;;5073602;28;19924;-62
2023/06/15 04:05:10;;;;;;;;;;;;;;;;;;5073102;28;19924;-62
2023/06/15 04:07:36;;;;;;;;;;;;;;;;;;5090808;28;19974;-62
2023/06/15 04:10:03;;;;;;;;;;;;;;;;;;5091708;28;20407;-62
2023/06/15 04:12:29;;;;;;;;;;;;;;;;;;5091169;28;19931;-62
2023/06/15 04:14:55;;;;;;;;;;;;;;;;;;5091764;28;20294;-62
2023/06/15 04:17:21;;;;;;;;;;;;;;;;;;5091895;28;19920;-61
2023/06/15 04:19:47;;;;;;;;;;;;;;;;;;5091434;28;19920;-61
2023/06/15 04:22:13;;;;;;;;;;;;;;;;;;5091629;28;19920;-61
2023/06/15 04:24:39;;;;;;;;;;;;;;;;;;5091537;28;19974;-61
2023/06/15 04:27:05;;;;;;;;;;;;;;;;;;5074519;28;19976;-61
2023/06/15 04:29:31;;;;;;;;;;;;;;;;;;5075312;28;19924;-61
2023/06/15 04:31:57;;;;;;;;;;;;;;;;;;5091612;28;19972;-61
2023/06/15 04:34:24;;;;;;;;;;;;;;;;;;5091260;28;19920;-61
2023/06/15 04:36:50;;;;;;;;;;;;;;;;;;5091099;28;19924;-61
2023/06/15 04:39:16;;;;;;;;;;;;;;;;;;5091615;28;20060;-61
2023/06/15 04:41:42;;;;;;;;;;;;;;;;;;5091488;28;19920;-61
2023/06/15 04:44:08;;;;;;;;;;;;;;;;;;5090827;28;20394;-61
2023/06/15 04:46:39;;;;;;;;;;;;;;;;;;5091285;28;19928;-62
2023/06/15 04:49:06;;;;;;;;;;;;;;;;;;5091348;28;19924;-62
2023/06/15 04:51:32;;;;;;;;;;;;;;;;;;5067660;28;19986;-62
2023/06/15 04:53:58;;;;;;;;;;;;;;;;;;5052331;28;20453;-62
2023/06/15 04:56:24;;;;;;;;;;;;;;;;;;5053167;28;19944;-62
2023/06/15 04:58:50;;;;;;;;;;;;;;;;;;5044641;28;19990;-62
2023/06/15 05:01:17;;;;;;;;;;;;;;;;;;5044933;28;20359;-62
2023/06/15 05:03:43;;;;;;;;;;;;;;;;;;5063704;28;19921;-62
2023/06/15 05:06:10;;;;;;;;;;;;;;;;;;5061577;28;20069;-62
2023/06/15 05:08:36;;;;;;;;;;;;;;;;;;5063574;28;20438;-62
2023/06/15 05:11:02;;;;;;;;;;;;;;;;;;5065329;28;19925;-62
2023/06/15 05:13:28;;;;;;;;;;;;;;;;;;5056996;28;19948;-62
2023/06/15 05:15:54;;;;;;;;;;;;;;;;;;5062655;28;20396;-62
2023/06/15 05:18:20;;;;;;;;;;;;;;;;;;5065698;28;20038;-62
2023/06/15 05:20:46;;;;;;;;;;;;;;;;;;5063196;28;19924;-62
2023/06/15 05:23:13;;;;;;;;;;;;;;;;;;5036815;28;19931;-62
2023/06/15 05:25:38;;;;;;;;;;;;;;;;;;5044006;28;19932;-62
2023/06/15 05:28:04;;;;;;;;;;;;;;;;;;5062104;28;19932;-62
2023/06/15 05:30:30;;;;;;;;;;;;;;;;;;5063727;28;19925;-62
2023/06/15 05:32:56;;;;;;;;;;;;;;;;;;5064594;28;19924;-62
2023/06/15 05:35:22;;;;;;;;;;;;;;;;;;5062541;28;19928;-62
2023/06/15 05:37:48;;;;;;;;;;;;;;;;;;5053303;28;19928;-62
2023/06/15 05:40:14;;;;;;;;;;;;;;;;;;5063291;28;19982;-62
2023/06/15 05:42:40;;;;;;;;;;;;;;;;;;5063287;28;20795;-62
2023/06/15 05:45:06;;;;;;;;;;;;;;;;;;5064774;28;20011;-62
2023/06/15 05:47:32;;;;;;;;;;;;;;;;;;5060752;28;19968;-62
2023/06/15 05:49:58;;;;;;;;;;;;;;;;;;5063988;28;19979;-62
2023/06/15 05:52:24;;;;;;;;;;;;;;;;;;5064720;28;19939;-62
2023/06/15 05:54:50;;;;;;;;;;;;;;;;;;5061173;28;19925;-63
2023/06/15 05:57:16;;;;;;;;;;;;;;;;;;5062161;28;19925;-61
2023/06/15 05:59:42;;;;;;;;;;;;;;;;;;5060565;28;19935;-59
2023/06/15 06:02:08;;;;;;;;;;;;;;;;;;5061461;28;19928;-58
2023/06/15 06:04:34;;;;;;;;;;;;;;;;;;5063415;28;19976;-58
2023/06/15 06:07:00;;;;;;;;;;;;;;;;;;5062096;28;20032;-60
2023/06/15 06:09:26;;;;;;;;;;;;;;;;;;5060433;28;20015;-58
2023/06/15 06:11:52;;;;;;;;;;;;;;;;;;5062565;28;19951;-58
2023/06/15 06:14:18;;;;;;;;;;;;;;;;;;5062837;28;19929;-59
2023/06/15 06:16:44;;;;;;;;;;;;;;;;;;5062855;28;19958;-58
2023/06/15 06:19:11;;;;;;;;;;;;;;;;;;5062595;28;19931;-60
2023/06/15 06:21:37;;;;;;;;;;;;;;;;;;5063498;28;19923;-60
2023/06/15 06:24:03;;;;;;;;;;;;;;;;;;5065195;28;20497;-60
2023/06/15 06:26:28;;;;;;;;;;;;;;;;;;5059894;28;20019;-59
2023/06/15 06:28:54;;;;;;;;;;;;;;;;;;5042360;28;20478;-61
2023/06/15 06:31:20;;;;;;;;;;;;;;;;;;5062467;28;20093;-61
2023/06/15 06:33:46;;;;;;;;;;;;;;;;;;5065308;28;19928;-59
2023/06/15 06:36:12;;;;;;;;;;;;;;;;;;5065885;28;19951;-61
2023/06/15 06:38:38;;;;;;;;;;;;;;;;;;5060559;28;20010;-60
2023/06/15 06:41:04;;;;;;;;;;;;;;;;;;5065545;28;19931;-60
2023/06/15 06:43:30;;;;;;;;;;;;;;;;;;5060952;28;19924;-62
2023/06/15 06:45:56;;;;;;;;;;;;;;;;;;5067120;28;19939;-61
2023/06/15 06:48:22;;;;;;;;;;;;;;;;;;5065213;28;19929;-62
2023/06/15 06:50:48;;;;;;;;;;;;;;;;;;5063839;28;19951;-61
2023/06/15 06:53:14;;;;;;;;;;;;;;;;;;5062505;28;19924;-61
2023/06/15 06:55:43;;;;;;;;;;;;;;;;;;5059010;28;20561;-61
2023/06/15 06:58:09;;;;;;;;;;;;;;;;;;5064645;28;19928;-61
2023/06/15 07:00:35;;;;;;;;;;;;;;;;;;5066254;28;19927;-62
2023/06/15 07:03:00;;;;;;;;;;;;;;;;;;5049669;28;19935;-61
2023/06/15 07:05:26;;;;;;;;;;;;;;;;;;5059212;28;19928;-62
2023/06/15 07:07:52;;;;;;;;;;;;;;;;;;5063994;28;19928;-62
2023/06/15 07:10:18;;;;;;;;;;;;;;;;;;5063470;28;19949;-61
2023/06/15 07:12:44;;;;;;;;;;;;;;;;;;5063781;28;19920;-62
2023/06/15 07:15:10;;;;;;;;;;;;;;;;;;5063583;28;19933;-60
2023/06/15 07:17:36;;;;;;;;;;;;;;;;;;5064574;28;19934;-60
2023/06/15 07:20:02;;;;;;;;;;;;;;;;;;5063544;28;20010;-61
2023/06/15 07:22:28;;;;;;;;;;;;;;;;;;5064371;28;19954;-62
2023/06/15 07:24:54;;;;;;;;;;;;;;;;;;5062871;28;20053;-61
2023/06/15 07:27:20;;;;;;;;;;;;;;;;;;5064181;28;19933;-60
2023/06/15 07:29:47;;;;;;;;;;;;;;;;;;5063548;28;19935;-61
2023/06/15 07:32:13;;;;;;;;;;;;;;;;;;5062738;28;19920;-61
2023/06/15 07:34:39;;;;;;;;;;;;;;;;;;5035022;28;19939;-62
2023/06/15 07:37:05;;;;;;;;;;;;;;;;;;5062834;28;19978;-59
2023/06/15 07:39:31;;;;;;;;;;;;;;;;;;5064258;28;20310;-60
2023/06/15 07:41:57;;;;;;;;;;;;;;;;;;5063943;28;19985;-61
2023/06/15 07:44:23;;;;;;;;;;;;;;;;;;5063749;28;20485;-62
2023/06/15 07:46:49;;;;;;;;;;;;;;;;;;5063688;28;19932;-62
2023/06/15 07:49:16;;;;;;;;;;;;;;;;;;5063582;28;19928;-62
2023/06/15 07:51:42;;;;;;;;;;;;;;;;;;5064120;28;19936;-62
2023/06/15 07:54:08;;;;;;;;;;;;;;;;;;5066780;28;19928;-59
2023/06/15 07:56:34;;;;;;;;;;;;;;;;;;5064016;28;19932;-61
2023/06/15 07:59:00;;;;;;;;;;;;;;;;;;5048749;28;19968;-61
2023/06/15 08:01:26;;;;;;;;;;;;;;;;;;5060584;28;19928;-60
2023/06/15 08:03:51;;;;;;;;;;;;;;;;;;5062704;28;19928;-61
2023/06/15 08:06:17;;;;;;;;;;;;;;;;;;5058239;28;20067;-60
2023/06/15 08:08:45;;;;;;;;;;;;;;;;;;5064650;28;19986;-61
2023/06/15 08:11:10;;;;;;;;;;;;;;;;;;5065881;28;20048;-60
2023/06/15 08:13:37;;;;;;;;;;;;;;;;;;5045227;28;19954;-60
2023/06/15 08:16:03;;;;;;;;;;;;;;;;;;5063798;28;19928;-59
2023/06/15 08:18:29;;;;;;;;;;;;;;;;;;5063207;28;19929;-62
2023/06/15 08:20:55;;;;;;;;;;;;;;;;;;5063375;28;19935;-62
2023/06/15 08:23:21;;;;;;;;;;;;;;;;;;5066003;28;19959;-62
2023/06/15 08:25:47;;;;;;;;;;;;;;;;;;5062875;28;19936;-62
2023/06/15 08:28:13;;;;;;;;;;;;;;;;;;5065113;28;19932;-62
2023/06/15 08:30:39;;;;;;;;;;;;;;;;;;5048100;28;20383;-61
2023/06/15 08:33:05;;;;;;;;;;;;;;;;;;5044904;28;19932;-61
2023/06/15 08:35:31;;;;;;;;;;;;;;;;;;5058944;28;20046;-61
2023/06/15 08:37:57;;;;;;;;;;;;;;;;;;5058420;28;19921;-61
2023/06/15 08:40:23;;;;;;;;;;;;;;;;;;5063727;28;20024;-61
2023/06/15 08:42:49;;;;;;;;;;;;;;;;;;5057941;28;19929;-61
2023/06/15 08:45:15;;;;;;;;;;;;;;;;;;5045463;28;19935;-60
2023/06/15 08:47:41;;;;;;;;;;;;;;;;;;5059722;28;20015;-62
2023/06/15 08:50:07;;;;;;;;;;;;;;;;;;5063332;28;19958;-61
2023/06/15 08:52:33;;;;;;;;;;;;;;;;;;5062373;28;19928;-60
2023/06/15 08:54:59;;;;;;;;;;;;;;;;;;5060674;28;19928;-65
2023/06/15 08:57:25;;;;;;;;;;;;;;;;;;5060562;28;19930;-63
2023/06/15 08:59:53;;;;;;;;;;;;;;;;;;5061213;28;19953;-60
2023/06/15 09:02:19;;;;;;;;;;;;;;;;;;5065724;28;19920;-59
2023/06/15 09:04:45;;;;;;;;;;;;;;;;;;5062072;28;20318;-61
2023/06/15 09:07:12;;;;;;;;;;;;;;;;;;5062343;28;19968;-61
2023/06/15 09:09:38;;;;;;;;;;;;;;;;;;5060879;28;21880;-59
2023/06/15 09:12:04;;;;;;;;;;;;;;;;;;5063306;28;19920;-61
2023/06/15 09:14:30;;;;;;;;;;;;;;;;;;5065701;28;19931;-62
2023/06/15 09:16:56;;;;;;;;;;;;;;;;;;5062295;28;19924;-61
2023/06/15 09:19:22;;;;;;;;;;;;;;;;;;5044170;28;19924;-61
2023/06/15 09:21:49;;;;;;;;;;;;;;;;;;5054021;28;20489;-61
2023/06/15 09:24:15;;;;;;;;;;;;;;;;;;5056608;28;19929;-62
2023/06/15 09:26:41;;;;;;;;;;;;;;;;;;5062649;28;19925;-61
2023/06/15 09:29:07;;;;;;;;;;;;;;;;;;5064713;28;19970;-60
2023/06/15 09:31:33;;;;;;;;;;;;;;;;;;5064725;28;20031;-59
2023/06/15 09:33:59;;;;;;;;;;;;;;;;;;5063347;28;19929;-61
2023/06/15 09:36:25;;;;;;;;;;;;;;;;;;5063321;28;20294;-61
2023/06/15 09:38:54;;;;;;;;;;;;;;;;;;5060501;28;19924;-59
2023/06/15 09:41:20;;;;;;;;;;;;;;;;;;5062022;28;20536;-60
2023/06/15 09:43:46;;;;;;;;;;;;;;;;;;5062993;28;19986;-59
2023/06/15 09:46:12;;;;;;;;;;;;;;;;;;5062416;28;19932;-62
2023/06/15 09:48:38;;;;;;;;;;;;;;;;;;5062564;28;19929;-60
2023/06/15 09:51:04;;;;;;;;;;;;;;;;;;5060983;28;19935;-60
2023/06/15 09:53:30;;;;;;;;;;;;;;;;;;5061311;28;20306;-60
2023/06/15 09:55:56;;;;;;;;;;;;;;;;;;5062616;28;19934;-60
2023/06/15 09:58:22;;;;;;;;;;;;;;;;;;5060833;28;19929;-61
2023/06/15 10:00:48;;;;;;;;;;;;;;;;;;5062286;28;19920;-62
2023/06/15 10:03:14;;;;;;;;;;;;;;;;;;5061239;28;20015;-59
2023/06/15 10:05:44;;;;;;;;;;;;;;;;;;5065625;28;19924;-62
2023/06/15 10:08:11;;;;;;;;;;;;;;;;;;5065055;28;19932;-61
2023/06/15 10:10:37;;;;;;;;;;;;;;;;;;5065138;28;19929;-60
2023/06/15 10:13:03;;;;;;;;;;;;;;;;;;5064184;28;19928;-62
2023/06/15 10:15:29;;;;;;;;;;;;;;;;;;5065512;28;20564;-62
2023/06/15 10:17:56;;;;;;;;;;;;;;;;;;5067513;28;19924;-62
2023/06/15 10:20:23;;;;;;;;;;;;;;;;;;5066120;28;20015;-62
2023/06/15 10:22:50;;;;;;;;;;;;;;;;;;5065597;28;19925;-59
2023/06/15 10:25:16;;;;;;;;;;;;;;;;;;5066735;28;19943;-60
2023/06/15 10:27:42;;;;;;;;;;;;;;;;;;5066356;28;19932;-59
2023/06/15 10:30:08;;;;;;;;;;;;;;;;;;5060549;28;19928;-61
2023/06/15 10:32:34;;;;;;;;;;;;;;;;;;5065436;28;19932;-59
2023/06/15 10:35:00;;;;;;;;;;;;;;;;;;5066851;28;19924;-59
2023/06/15 10:37:26;;;;;;;;;;;;;;;;;;5066649;28;19981;-59
2023/06/15 10:39:52;;;;;;;;;;;;;;;;;;5065812;28;21233;-61
2023/06/15 10:42:18;;;;;;;;;;;;;;;;;;5046296;28;19924;-61
2023/06/15 10:44:44;;;;;;;;;;;;;;;;;;5063803;28;19920;-61
2023/06/15 10:47:10;;;;;;;;;;;;;;;;;;5064220;28;19951;-61
2023/06/15 10:49:36;;;;;;;;;;;;;;;;;;5067529;28;19928;-62
2023/06/15 10:52:02;;;;;;;;;;;;;;;;;;5065463;28;19928;-62
2023/06/15 10:54:28;;;;;;;;;;;;;;;;;;5064418;28;19924;-61
2023/06/15 10:56:55;;;;;;;;;;;;;;;;;;5065592;28;19943;-62
2023/06/15 10:59:21;;;;;;;;;;;;;;;;;;5066670;28;19931;-61
2023/06/15 11:01:47;;;;;;;;;;;;;;;;;;5052202;28;20283;-62
2023/06/15 11:04:13;;;;;;;;;;;;;;;;;;5066624;28;19963;-62
2023/06/15 11:06:39;;;;;;;;;;;;;;;;;;5064781;28;19967;-61
2023/06/15 11:09:08;;;;;;;;;;;;;;;;;;5065112;28;19928;-60
2023/06/15 11:11:34;;;;;;;;;;;;;;;;;;5046964;28;20375;-61
2023/06/15 11:14:00;;;;;;;;;;;;;;;;;;5064838;28;19928;-60
2023/06/15 11:16:27;;;;;;;;;;;;;;;;;;5063200;28;20373;-59
2023/06/15 11:18:53;;;;;;;;;;;;;;;;;;5065493;28;20453;-61
2023/06/15 11:21:19;;;;;;;;;;;;;;;;;;5065018;28;19928;-61
2023/06/15 11:23:45;;;;;;;;;;;;;;;;;;5065458;28;19946;-62
2023/06/15 11:26:12;;;;;;;;;;;;;;;;;;5066564;28;20317;-62
2023/06/15 11:28:41;;;;;;;;;;;;;;;;;;5067058;28;20382;-62
2023/06/15 11:31:07;;;;;;;;;;;;;;;;;;5065380;28;20019;-61
2023/06/15 11:33:36;;;;;;;;;;;;;;;;;;5065091;28;19924;-61
2023/06/15 11:36:03;;;;;;;;;;;;;;;;;;5067193;28;20011;-61
2023/06/15 11:38:30;;;;;;;;;;;;;;;;;;5066367;28;19924;-61
2023/06/15 11:40:56;;;;;;;;;;;;;;;;;;5065940;28;19936;-60
2023/06/15 11:43:22;;;;;;;;;;;;;;;;;;5065569;28;19920;-61
2023/06/15 11:45:48;;;;;;;;;;;;;;;;;;5066190;28;19955;-61
2023/06/15 11:48:14;;;;;;;;;;;;;;;;;;5065715;28;19928;-60
2023/06/15 11:50:40;;;;;;;;;;;;;;;;;;5063863;28;19924;-59
2023/06/15 11:53:06;;;;;;;;;;;;;;;;;;5064541;28;19924;-61
2023/06/15 11:55:33;;;;;;;;;;;;;;;;;;5063261;28;19927;-59
2023/06/15 11:57:59;;;;;;;;;;;;;;;;;;5058110;28;20051;-62
2023/06/15 12:00:25;;;;;;;;;;;;;;;;;;5055956;28;20066;-62
2023/06/15 12:02:51;;;;;;;;;;;;;;;;;;5061495;28;19944;-61
2023/06/15 12:05:17;;;;;;;;;;;;;;;;;;5064417;28;19928;-59
2023/06/15 12:07:43;;;;;;;;;;;;;;;;;;5063222;28;19931;-61
2023/06/15 12:10:11;;;;;;;;;;;;;;;;;;5065258;28;20303;-61
2023/06/15 12:12:37;;;;;;;;;;;;;;;;;;5064798;28;20363;-61
2023/06/15 12:15:03;;;;;;;;;;;;;;;;;;5062478;28;20013;-62
2023/06/15 12:17:29;;;;;;;;;;;;;;;;;;5050719;28;19978;-62
2023/06/15 12:19:55;;;;;;;;;;;;;;;;;;5062782;28;19943;-62
2023/06/15 12:22:21;;;;;;;;;;;;;;;;;;5062840;28;19971;-60
2023/06/15 12:24:48;;;;;;;;;;;;;;;;;;5066327;28;20031;-62
2023/06/15 12:27:17;;;;;;;;;;;;;;;;;;5064813;28;20284;-61
2023/06/15 12:29:43;;;;;;;;;;;;;;;;;;5063874;28;19924;-62
2023/06/15 12:32:09;;;;;;;;;;;;;;;;;;5066264;28;20409;-61
2023/06/15 12:34:35;;;;;;;;;;;;;;;;;;5064281;28;19932;-60
2023/06/15 12:37:01;;;;;;;;;;;;;;;;;;5065405;28;19929;-61
2023/06/15 12:39:27;;;;;;;;;;;;;;;;;;5064237;28;19935;-61
2023/06/15 12:41:53;;;;;;;;;;;;;;;;;;5063686;28;19924;-61
2023/06/15 12:44:19;;;;;;;;;;;;;;;;;;5037278;28;19931;-61
2023/06/15 12:46:45;;;;;;;;;;;;;;;;;;5036169;28;19940;-60
2023/06/15 12:49:11;;;;;;;;;;;;;;;;;;5062915;28;19924;-62
2023/06/15 12:51:37;;;;;;;;;;;;;;;;;;5045625;28;20125;-62
2023/06/15 12:54:03;;;;;;;;;;;;;;;;;;5058346;28;19927;-62
2023/06/15 12:56:29;;;;;;;;;;;;;;;;;;5027438;28;19936;-61
2023/06/15 12:58:55;;;;;;;;;;;;;;;;;;5046813;28;20160;-62
2023/06/15 13:01:21;;;;;;;;;;;;;;;;;;5063378;28;20612;-62
2023/06/15 13:03:47;;;;;;;;;;;;;;;;;;5062590;28;19981;-62
2023/06/15 13:06:14;;;;;;;;;;;;;;;;;;5057621;28;19931;-62
2023/06/15 13:08:40;;;;;;;;;;;;;;;;;;5063600;28;19936;-60
2023/06/15 13:11:06;;;;;;;;;;;;;;;;;;5062822;28;19932;-60
2023/06/15 13:13:32;;;;;;;;;;;;;;;;;;5021907;28;19920;-62
2023/06/15 13:15:58;;;;;;;;;;;;;;;;;;5031970;28;19924;-61
2023/06/15 13:18:24;;;;;;;;;;;;;;;;;;5061080;28;19931;-62
2023/06/15 13:20:49;;;;;;;;;;;;;;;;;;5061228;28;19982;-62
2023/06/15 13:23:15;;;;;;;;;;;;;;;;;;5063438;28;19928;-63
2023/06/15 13:25:41;;;;;;;;;;;;;;;;;;5050946;28;19993;-62
2023/06/15 13:28:07;;;;;;;;;;;;;;;;;;5061400;28;19939;-60
2023/06/15 13:30:33;;;;;;;;;;;;;;;;;;5059428;28;19975;-62
2023/06/15 13:32:59;;;;;;;;;;;;;;;;;;5068147;28;19920;-62
2023/06/15 13:35:25;;;;;;;;;;;;;;;;;;5088699;28;19999;-62
2023/06/15 13:37:51;;;;;;;;;;;;;;;;;;5089527;28;20019;-62
2023/06/15 13:40:17;;;;;;;;;;;;;;;;;;5087623;28;20442;-63
2023/06/15 13:42:43;;;;;;;;;;;;;;;;;;5090316;28;20007;-63
2023/06/15 13:45:09;;;;;;;;;;;;;;;;;;5090543;28;19928;-59
2023/06/15 13:47:35;;;;;;;;;;;;;;;;;;5074005;28;20555;-59
2023/06/15 13:50:01;;;;;;;;;;;;;;;;;;5096044;28;20275;-59
2023/06/15 13:52:27;;;;;;;;;;;;;;;;;;5097112;28;20014;-60
2023/06/15 13:54:53;;;;;;;;;;;;;;;;;;5096100;28;20034;-58
2023/06/15 13:57:20;;;;;;;;;;;;;;;;;;5077998;28;20038;-58
2023/06/15 13:59:46;;;;;;;;;;;;;;;;;;5096968;28;19977;-58
2023/06/15 14:02:12;;;;;;;;;;;;;;;;;;5096817;28;20386;-58
2023/06/15 14:04:38;;;;;;;;;;;;;;;;;;5095640;28;19946;-60
2023/06/15 14:07:04;;;;;;;;;;;;;;;;;;5096413;28;20362;-60
2023/06/15 14:09:30;;;;;;;;;;;;;;;;;;5096909;28;19924;-58
2023/06/15 14:11:59;;;;;;;;;;;;;;;;;;5096352;28;19928;-59
2023/06/15 14:14:25;;;;;;;;;;;;;;;;;;5090921;28;19924;-60
2023/06/15 14:16:52;;;;;;;;;;;;;;;;;;5090658;28;19928;-58
2023/06/15 14:19:18;;;;;;;;;;;;;;;;;;5076916;28;19935;-58
2023/06/15 14:21:44;;;;;;;;;;;;;;;;;;5096229;28;19920;-59
2023/06/15 14:24:10;;;;;;;;;;;;;;;;;;5094130;28;19980;-58
2023/06/15 14:26:36;;;;;;;;;;;;;;;;;;5091001;28;20073;-59
2023/06/15 14:29:02;;;;;;;;;;;;;;;;;;5096906;28;19931;-60
2023/06/15 14:31:28;;;;;;;;;;;;;;;;;;5096588;28;19955;-57
2023/06/15 14:33:54;;;;;;;;;;;;;;;;;;5094519;28;19924;-57
2023/06/15 14:36:20;;;;;;;;;;;;;;;;;;5094703;28;19924;-59
2023/06/15 14:38:46;;;;;;;;;;;;;;;;;;5096367;28;20437;-59
2023/06/15 14:41:12;;;;;;;;;;;;;;;;;;5096673;28;19933;-58
2023/06/15 14:43:38;;;;;;;;;;;;;;;;;;5096315;28;19965;-58
2023/06/15 14:46:04;;;;;;;;;;;;;;;;;;5096226;28;20499;-57
2023/06/15 14:48:30;;;;;;;;;;;;;;;;;;5096502;28;19924;-57
2023/06/15 14:50:56;;;;;;;;;;;;;;;;;;5095942;28;19931;-60
2023/06/15 14:53:22;;;;;;;;;;;;;;;;;;5092485;28;19949;-59
2023/06/15 14:55:48;;;;;;;;;;;;;;;;;;5086250;28;19943;-60
2023/06/15 14:58:13;;;;;;;;;;;;;;;;;;5072751;28;19921;-58
2023/06/15 15:00:39;;;;;;;;;;;;;;;;;;5073471;28;19994;-61
2023/06/15 15:03:07;;;;;;;;;;;;;;;;;;5073419;28;19928;-61
2023/06/15 15:05:33;;;;;;;;;;;;;;;;;;5072772;28;19928;-61
2023/06/15 15:07:59;;;;;;;;;;;;;;;;;;5073206;28;19931;-61
2023/06/15 15:10:27;;;;;;;;;;;;;;;;;;5072991;28;19951;-61
2023/06/15 15:12:53;;;;;;;;;;;;;;;;;;5072554;28;19927;-61
2023/06/15 15:15:19;;;;;;;;;;;;;;;;;;5072931;28;19926;-61
2023/06/15 15:17:45;;;;;;;;;;;;;;;;;;5073105;28;19921;-61
2023/06/15 15:20:11;;;;;;;;;;;;;;;;;;5072588;28;20007;-61
2023/06/15 15:22:39;;;;;;;;;;;;;;;;;;5073009;28;20545;-61
2023/06/15 15:25:05;;;;;;;;;;;;;;;;;;5054204;28;20276;-61
2023/06/15 15:27:31;;;;;;;;;;;;;;;;;;5092217;28;19972;-61
2023/06/15 15:29:57;;;;;;;;;;;;;;;;;;5092848;28;19920;-61
2023/06/15 15:32:23;;;;;;;;;;;;;;;;;;5092805;28;19932;-61
2023/06/15 15:34:49;;;;;;;;;;;;;;;;;;5092253;28;19970;-61
2023/06/15 15:37:22;;;;;;;;;;;;;;;;;;5092416;28;19920;-61
2023/06/15 15:39:48;;;;;;;;;;;;;;;;;;5092815;28;19920;-61
2023/06/15 15:42:14;;;;;;;;;;;;;;;;;;5092369;28;20017;-61
2023/06/15 15:44:40;;;;;;;;;;;;;;;;;;5092595;28;19923;-61
2023/06/15 15:47:06;;;;;;;;;;;;;;;;;;5092502;28;19934;-61
2023/06/15 15:49:31;;;;;;;;;;;;;;;;;;5092203;28;19920;-61
2023/06/15 15:51:57;;;;;;;;;;;;;;;;;;5092710;28;19920;-61
2023/06/15 15:54:23;;;;;;;;;;;;;;;;;;5074160;28;19989;-61
2023/06/15 15:56:49;;;;;;;;;;;;;;;;;;5092200;28;19924;-61
2023/06/15 15:59:17;;;;;;;;;;;;;;;;;;5092406;28;19946;-61
2023/06/15 16:01:43;;;;;;;;;;;;;;;;;;5092221;28;20439;-61
2023/06/15 16:04:09;;;;;;;;;;;;;;;;;;5091823;28;20371;-61
2023/06/15 16:06:35;;;;;;;;;;;;;;;;;;5091871;28;19931;-61
2023/06/15 16:09:00;;;;;;;;;;;;;;;;;;5074088;28;19924;-61
2023/06/15 16:11:26;;;;;;;;;;;;;;;;;;5091695;28;19924;-61
2023/06/15 16:13:52;;;;;;;;;;;;;;;;;;5092045;28;19965;-61
2023/06/15 16:16:18;;;;;;;;;;;;;;;;;;5074035;28;19920;-61
2023/06/15 16:18:44;;;;;;;;;;;;;;;;;;5073539;28;20000;-61
2023/06/15 16:21:10;;;;;;;;;;;;;;;;;;5092020;28;20332;-61
2023/06/15 16:23:36;;;;;;;;;;;;;;;;;;5091656;28;19947;-61
2023/06/15 16:26:03;;;;;;;;;;;;;;;;;;5083398;28;20019;-61
2023/06/15 16:28:29;;;;;;;;;;;;;;;;;;5071651;28;19929;-61
2023/06/15 16:30:55;;;;;;;;;;;;;;;;;;5086929;28;19944;-61
2023/06/15 16:33:21;;;;;;;;;;;;;;;;;;5091185;28;19989;-61
2023/06/15 16:35:47;;;;;;;;;;;;;;;;;;5091574;28;20004;-61
2023/06/15 16:38:13;;;;;;;;;;;;;;;;;;5091466;28;20007;-61